Time;durP1;ratioP1;P1;durP2;ratioP2;P2;SDS_P1;SDS_P2;PMS_P1;PMS_P2;Temp;Humidity;BMP_temperature;BMP_pressure;BME280_temperature;BME280_humidity;BME280_pressure;Samples;Min_cycle;Max_cycle;Signal;HPM_P1;HPM_P2
2022/05/12 00:00:36;;;;;;;9.50;4.40;;;14.70;1.00;;;16.04;51.37;98494.00;5035094;27;126278;-77
2022/05/12 00:03:07;;;;;;;8.60;4.35;;;14.70;1.00;;;15.97;52.27;98510.31;5035440;27;130510;-77
2022/05/12 00:05:38;;;;;;;8.40;4.07;;;14.70;1.00;;;15.91;51.94;98506.34;5019939;27;129031;-78
2022/05/12 00:08:07;;;;;;;10.32;4.10;;;14.70;1.00;;;15.84;52.63;98514.47;5034879;27;125979;-76
2022/05/12 00:10:36;;;;;;;9.50;4.25;;;14.60;1.00;;;15.78;52.50;98498.38;5034552;27;125941;-77
2022/05/12 00:13:06;;;;;;;6.20;3.97;;;14.50;1.00;;;15.74;52.62;98494.00;5018950;27;130446;-77
2022/05/12 00:15:36;;;;;;;7.78;3.92;;;14.50;1.00;;;15.70;52.60;98493.94;5034648;27;130267;-77
2022/05/12 00:18:08;;;;;;;8.05;4.18;;;14.50;1.00;;;15.70;52.83;98484.94;5016282;27;125455;-79
2022/05/12 00:20:41;;;;;;;9.63;3.80;;;14.40;1.00;;;15.67;53.17;98475.53;5034665;27;125600;-77
2022/05/12 00:23:13;;;;;;;5.85;3.38;;;14.40;1.00;;;15.58;53.50;98472.28;5034442;27;129755;-78
2022/05/12 00:25:44;;;;;;;9.48;3.97;;;14.40;1.00;;;15.54;53.40;98466.00;5034742;27;129713;-77
2022/05/12 00:28:13;;;;;;;7.88;4.13;;;14.40;1.00;;;15.52;53.94;98458.16;5034734;27;125976;-77
2022/05/12 00:30:43;;;;;;;7.60;3.63;;;14.30;1.00;;;15.52;54.03;98451.88;5034521;27;125517;-78
2022/05/12 00:33:13;;;;;;;9.05;4.38;;;14.30;1.00;;;15.50;53.94;98465.13;5034423;27;130325;-78
2022/05/12 00:35:45;;;;;;;9.95;4.00;;;14.30;1.00;;;15.49;53.72;98463.56;5034357;27;130639;-78
2022/05/12 00:38:14;;;;;;;7.28;4.00;;;14.30;1.00;;;15.50;53.85;98462.41;5033933;27;126586;-77
2022/05/12 00:40:47;;;;;;;7.07;4.05;;;14.30;1.00;;;15.48;54.53;98464.72;5019358;27;125223;-79
2022/05/12 00:43:40;;;;;;;7.70;3.42;;;14.20;1.00;;;15.44;55.08;98457.28;5034233;27;129960;-78
2022/05/12 00:46:13;;;;;;;8.05;3.95;;;14.20;1.00;;;15.44;55.19;98457.28;5034109;27;129810;-78
2022/05/12 00:48:43;;;;;;;8.07;4.22;;;14.20;1.00;;;15.42;55.03;98443.16;5034118;27;125624;-77
2022/05/12 00:51:18;;;;;;;10.20;4.63;;;14.10;1.00;;;15.39;54.98;98443.91;5035210;27;125947;-78
2022/05/12 00:53:49;;;;;;;6.85;3.75;;;14.10;1.00;;;15.33;55.27;98439.91;5019041;27;130533;-77
2022/05/12 00:56:23;;;;;;;8.05;3.78;;;14.10;1.00;;;15.34;55.29;98441.50;5019455;27;128539;-77
2022/05/12 00:58:56;;;;;;;7.38;4.20;;;14.00;1.00;;;15.31;56.65;98455.91;5018676;27;126048;-77
2022/05/12 01:01:24;;;;;;;8.40;4.00;;;14.10;1.00;;;15.21;56.94;98437.41;5034075;27;125625;-76
2022/05/12 01:03:54;;;;;;;10.45;4.63;;;14.10;1.00;;;15.23;57.09;98444.06;5015149;27;129947;-78
2022/05/12 01:06:24;;;;;;;8.85;4.25;;;14.20;1.00;;;15.23;56.76;98443.28;5018929;27;129246;-78
2022/05/12 01:08:53;;;;;;;8.40;4.60;;;14.10;1.00;;;15.25;57.80;98449.16;5034507;27;127387;-75
2022/05/12 01:11:24;;;;;;;11.02;4.35;;;14.20;1.00;;;15.31;57.44;98442.22;5033917;27;125889;-77
2022/05/12 01:13:59;;;;;;;10.32;4.38;;;14.30;1.00;;;15.41;57.34;98447.06;5033989;27;130672;-79
2022/05/12 01:16:43;;;;;;;9.88;4.45;;;14.40;1.00;;;15.49;57.43;98445.22;5034036;27;129848;-78
2022/05/12 01:19:17;;;;;;;8.13;4.80;;;14.50;1.00;;;15.55;57.79;98429.28;5034210;27;127459;-77
2022/05/12 01:21:50;;;;;;;10.40;4.20;;;14.60;1.00;;;15.63;58.14;98430.97;5019646;27;125287;-78
2022/05/12 01:24:23;;;;;;;13.45;4.72;;;14.60;1.00;;;15.70;57.46;98430.25;5033713;27;130136;-77
2022/05/12 01:26:52;;;;;;;8.68;4.22;;;14.80;1.00;;;15.78;57.34;98430.00;5018545;27;128994;-79
2022/05/12 01:29:20;;;;;;;10.88;4.28;;;14.90;1.00;;;15.84;57.30;98426.94;5015245;27;126777;-77
2022/05/12 01:31:49;;;;;;;7.55;4.80;;;15.00;1.00;;;15.96;57.02;98426.69;5015834;27;126368;-78
2022/05/12 01:34:17;;;;;;;8.35;4.47;;;15.10;1.00;;;16.03;57.16;98425.97;5034257;27;130220;-76
2022/05/12 01:36:46;;;;;;;10.10;5.60;;;15.20;1.00;;;16.04;57.08;98422.88;5020022;27;128452;-76
2022/05/12 01:39:14;;;;;;;9.20;4.97;;;15.40;1.00;;;16.14;57.23;98419.47;5033763;27;127257;-79
2022/05/12 01:41:45;;;;;;;9.05;4.47;;;15.40;1.00;;;16.20;56.85;98419.13;5034912;27;126332;-78
2022/05/12 01:44:13;;;;;;;9.02;5.13;;;15.40;1.00;;;16.25;57.00;98399.59;5037006;27;130963;-77
2022/05/12 01:46:42;;;;;;;7.82;4.47;;;15.40;1.00;;;16.31;56.84;98403.59;5023477;27;128761;-76
2022/05/12 01:49:10;;;;;;;10.85;4.65;;;15.40;1.00;;;16.35;56.80;98396.97;5036832;27;126243;-76
2022/05/12 01:51:39;;;;;;;9.50;4.88;;;15.40;1.00;;;16.35;57.10;98399.72;5018256;28;125358;-78
2022/05/12 01:54:07;;;;;;;9.88;4.88;;;15.50;1.00;;;16.43;56.77;98403.31;5016402;28;129967;-78
2022/05/12 01:56:36;;;;;;;10.18;4.70;;;15.40;1.00;;;16.45;56.80;98403.72;5016444;28;130014;-78
2022/05/12 01:59:06;;;;;;;8.70;5.50;;;15.40;1.00;;;16.49;56.94;98399.06;5016727;28;125876;-77
2022/05/12 02:01:35;;;;;;;10.73;5.00;;;15.50;1.00;;;16.48;56.84;98394.75;5016715;28;125590;-78
2022/05/12 02:04:05;;;;;;;10.50;5.07;;;15.40;1.00;;;16.47;57.47;98398.66;5017402;28;129845;-75
2022/05/12 02:06:34;;;;;;;9.75;4.43;;;15.50;1.00;;;16.50;57.06;98400.66;5017870;28;129856;-78
2022/05/12 02:09:04;;;;;;;12.38;5.13;;;15.50;1.00;;;16.53;57.11;98410.84;5017086;28;125807;-78
2022/05/12 02:11:32;;;;;;;8.98;4.60;;;15.40;1.00;;;16.53;58.04;98416.31;5018212;28;126874;-78
2022/05/12 02:14:01;;;;;;;8.27;5.07;;;15.40;1.00;;;16.43;58.63;98422.47;5017550;28;130114;-77
2022/05/12 02:16:31;;;;;;;9.02;5.28;;;15.40;1.00;;;16.46;59.19;98432.69;5016839;28;129492;-78
2022/05/12 02:18:59;;;;;;;9.40;5.03;;;15.40;1.00;;;16.38;59.70;98447.47;5016274;28;126975;-77
2022/05/12 02:21:28;;;;;;;14.85;6.03;;;15.50;1.00;;;16.38;61.02;98452.94;5016470;28;126615;-76
2022/05/12 02:23:57;;;;;;;11.98;6.38;;;15.50;1.00;;;16.34;63.16;98449.38;5016616;28;129866;-76
2022/05/12 02:26:26;;;;;;;16.15;6.25;;;15.50;1.00;;;16.25;66.94;98455.16;5016378;28;129298;-78
2022/05/12 02:28:55;;;;;;;14.18;8.45;;;15.30;1.00;;;16.08;69.39;98466.69;5016394;28;126329;-76
2022/05/12 02:31:23;;;;;;;14.95;8.10;;;15.20;1.00;;;15.91;71.31;98473.50;5016379;28;126711;-75
2022/05/12 02:33:53;;;;;;;15.27;8.00;;;15.10;1.00;;;15.82;73.26;98466.38;5001091;28;129951;-76
2022/05/12 02:36:22;;;;;;;12.05;7.75;;;15.00;1.00;;;15.66;75.28;98473.16;5016605;28;130712;-79
2022/05/12 02:38:50;;;;;;;15.13;7.63;;;14.90;1.00;;;15.61;76.29;98466.06;5017865;28;125691;-74
2022/05/12 02:41:19;;;;;;;15.82;8.93;;;14.80;1.00;;;15.54;78.37;98450.38;5015939;28;125850;-76
2022/05/12 02:43:47;;;;;;;10.93;8.15;;;14.70;1.00;;;15.51;79.53;98450.31;5015737;28;129895;-75
2022/05/12 02:46:17;;;;;;;12.82;9.18;;;14.60;1.00;;;15.48;81.20;98435.44;5017863;28;128905;-75
2022/05/12 02:48:50;;;;;;;13.13;9.43;;;14.60;1.00;;;15.53;83.08;98412.44;5018963;28;126313;-74
2022/05/12 02:51:19;;;;;;;14.25;10.73;;;14.50;1.00;;;15.49;84.67;98430.75;5026048;27;125590;-73
2022/05/12 02:53:48;;;;;;;14.65;11.40;;;14.40;1.00;;;15.49;86.45;98404.22;5034367;27;130398;-72
2022/05/12 02:56:16;;;;;;;17.45;11.52;;;14.30;1.00;;;15.46;88.59;98380.34;5036068;27;129747;-72
2022/05/12 02:58:45;;;;;;;16.17;12.10;;;14.20;1.00;;;15.40;90.43;98352.53;5021073;27;125849;-71
2022/05/12 03:01:14;;;;;;;17.58;12.30;;;14.10;1.00;;;15.19;93.56;98371.38;5036442;27;125941;-73
2022/05/12 03:03:42;;;;;;;16.70;12.57;;;14.10;1.00;;;14.94;94.97;98373.78;5017874;27;129982;-72
2022/05/12 03:06:11;;;;;;;16.67;14.10;;;14.00;1.00;;;14.73;97.40;98364.09;5035757;27;130253;-73
2022/05/12 03:08:43;;;;;;;19.95;13.75;;;13.90;1.00;;;14.77;97.52;98375.06;5020375;27;126064;-74
2022/05/12 03:11:12;;;;;;;19.42;14.82;;;13.80;4.60;;;14.73;98.61;98403.13;5035738;27;126392;-74
2022/05/12 03:13:40;;;;;;;18.27;13.65;;;13.80;74.40;;;14.81;97.77;98386.84;5035356;27;131441;-74
2022/05/12 03:16:10;;;;;;;17.92;14.10;;;13.70;97.80;;;14.88;97.74;98397.88;5035518;27;129797;-74
2022/05/12 03:18:39;;;;;;;20.27;14.75;;;13.80;99.90;;;14.89;98.29;98399.47;5035631;27;125985;-74
2022/05/12 03:21:09;;;;;;;18.25;14.27;;;13.70;99.90;;;14.79;98.64;98405.53;5020682;27;124261;-75
2022/05/12 03:23:38;;;;;;;23.83;15.75;;;13.70;99.90;;;14.53;100.00;98404.31;5035622;27;130012;-74
2022/05/12 03:26:09;;;;;;;21.50;16.95;;;13.70;99.90;;;14.19;100.00;98401.38;5035916;27;129974;-74
2022/05/12 03:28:38;;;;;;;23.63;16.77;;;13.60;99.90;;;14.11;100.00;98372.41;5020611;27;125360;-75
2022/05/12 03:31:07;;;;;;;24.00;17.38;;;13.50;99.90;;;14.13;100.00;98383.72;5035383;27;125834;-75
2022/05/12 03:33:37;;;;;;;21.00;16.58;;;13.50;99.90;;;14.19;100.00;98365.91;5016702;27;130175;-75
2022/05/12 03:36:08;;;;;;;29.20;18.42;;;13.50;99.90;;;14.34;100.00;98354.09;5035412;27;129360;-76
2022/05/12 03:38:37;;;;;;;26.83;18.60;;;13.60;99.90;;;14.49;100.00;98368.78;5020902;27;125322;-73
2022/05/12 03:41:07;;;;;;;21.35;16.92;;;13.60;99.90;;;14.54;100.00;98364.97;5017228;27;125704;-75
2022/05/12 03:46:22;;;;;;;21.00;17.38;;;13.60;99.90;;;14.57;100.00;98365.00;5034616;27;130048;-75
2022/05/12 03:48:50;;;;;;;26.20;17.60;;;13.70;99.90;;;14.75;100.00;98359.06;5035272;27;125714;-73
2022/05/12 03:51:19;;;;;;;23.92;16.88;;;13.70;99.90;;;14.95;100.00;98348.81;5036877;27;126055;-74
2022/05/12 03:53:48;;;;;;;24.35;17.00;;;13.80;99.90;;;15.07;100.00;98336.91;5034914;27;131137;-76
2022/05/12 03:56:19;;;;;;;23.52;16.48;;;13.90;99.90;;;15.15;100.00;98340.50;5020128;27;129356;-73
2022/05/12 03:58:48;;;;;;;22.33;17.48;;;13.90;99.90;;;15.17;100.00;98338.19;5034769;27;126505;-73
2022/05/12 04:01:16;;;;;;;22.58;17.88;;;13.90;99.90;;;15.07;100.00;98340.41;5020104;27;126322;-69
2022/05/12 04:03:45;;;;;;;24.10;18.50;;;14.00;99.90;;;15.00;100.00;98326.63;5016121;27;130120;-71
2022/05/12 04:06:14;;;;;;;26.00;19.25;;;14.00;99.90;;;15.05;100.00;98348.19;5034722;27;129846;-73
2022/05/12 04:08:43;;;;;;;22.63;18.20;;;14.10;99.90;;;14.99;100.00;98344.22;5034965;27;125623;-72
2022/05/12 04:11:12;;;;;;;23.40;19.08;;;14.10;99.90;;;15.02;100.00;98335.28;5037798;27;126055;-75
2022/05/12 04:13:44;;;;;;;21.92;16.90;;;14.10;99.90;;;15.10;100.00;98320.53;5034799;27;129958;-75
2022/05/12 04:16:12;;;;;;;22.52;16.67;;;14.20;99.90;;;15.24;100.00;98305.50;5035472;27;130342;-75
2022/05/12 04:18:43;;;;;;;21.13;16.85;;;14.30;99.90;;;15.36;100.00;98310.69;5034870;27;125719;-76
2022/05/12 04:21:12;;;;;;;23.05;18.20;;;14.40;99.90;;;15.46;100.00;98299.13;5017449;27;125604;-75
2022/05/12 04:23:40;;;;;;;19.33;16.58;;;14.40;99.90;;;15.58;100.00;98302.75;5002357;27;130190;-75
2022/05/12 04:26:09;;;;;;;21.80;16.48;;;14.50;99.90;;;15.63;100.00;98300.47;5034508;27;129315;-74
2022/05/12 04:28:38;;;;;;;24.42;18.77;;;14.50;99.90;;;15.63;100.00;98296.97;5032024;27;125970;-73
2022/05/12 04:31:08;;;;;;;22.90;18.17;;;14.60;99.90;;;15.74;100.00;98286.13;5018656;27;124378;-74
2022/05/12 04:36:22;;;;;;;24.17;19.55;;;14.60;99.90;;;15.82;100.00;98274.91;5033710;27;129253;-72
2022/05/12 04:38:50;;;;;;;23.73;19.35;;;14.70;99.90;;;15.94;100.00;98281.25;5019221;27;125350;-74
2022/05/12 04:41:18;;;;;;;22.95;19.67;;;14.80;99.90;;;16.02;100.00;98288.38;5034311;27;125699;-74
2022/05/12 04:43:47;;;;;;;25.23;18.65;;;14.80;99.90;;;16.01;100.00;98281.31;5032832;27;129761;-74
2022/05/12 04:46:17;;;;;;;21.38;17.33;;;14.80;99.90;;;15.95;100.00;98288.31;5018252;27;129479;-74
2022/05/12 04:48:45;;;;;;;20.67;16.67;;;14.70;99.90;;;15.90;100.00;98286.69;5033438;27;126591;-71
2022/05/12 04:51:14;;;;;;;21.30;16.35;;;14.70;99.90;;;15.84;100.00;98265.53;5035329;27;126665;-72
2022/05/12 04:53:42;;;;;;;25.33;16.92;;;14.70;99.90;;;15.86;100.00;98263.19;5033728;27;130349;-74
2022/05/12 04:56:11;;;;;;;18.83;16.17;;;14.70;99.90;;;15.77;100.00;98261.56;5019030;27;128736;-71
2022/05/12 04:58:39;;;;;;;19.65;15.60;;;14.70;99.90;;;15.75;100.00;98252.13;5034212;27;126033;-71
2022/05/12 05:01:08;;;;;;;19.60;16.13;;;14.70;99.90;;;15.70;100.00;98228.66;5034098;27;125733;-71
2022/05/12 05:03:38;;;;;;;20.25;15.63;;;14.70;99.90;;;15.81;99.93;98226.81;5033969;27;130700;-71
2022/05/12 05:06:07;;;;;;;18.55;15.00;;;14.80;99.90;;;15.81;99.66;98210.41;5034258;27;130315;-73
2022/05/12 05:08:36;;;;;;;21.20;15.77;;;14.80;99.90;;;15.76;99.94;98183.38;5033970;27;126573;-72
2022/05/12 05:11:06;;;;;;;19.27;14.93;;;14.80;99.90;;;15.77;99.22;98201.41;5033677;27;125637;-71
2022/05/12 05:13:35;;;;;;;19.67;14.40;;;14.80;86.10;;;15.76;99.03;98188.84;5033370;27;130411;-73
2022/05/12 05:16:03;;;;;;;17.52;14.95;;;14.80;69.00;;;15.76;99.10;98168.94;5018379;27;129489;-72
2022/05/12 05:18:33;;;;;;;19.40;13.98;;;14.80;74.10;;;15.89;97.95;98169.44;5037310;27;125930;-73
2022/05/12 05:21:02;;;;;;;15.82;13.23;;;14.80;4.40;;;16.02;96.35;98156.22;5039417;27;125273;-74
2022/05/12 05:23:32;;;;;;;14.40;12.25;;;15.00;1.00;;;16.18;95.98;98146.56;5037230;27;130125;-74
2022/05/12 05:26:00;;;;;;;17.08;11.88;;;15.10;1.00;;;16.29;94.55;98137.66;5037431;27;130061;-74
2022/05/12 05:28:28;;;;;;;13.15;11.52;;;15.30;1.00;;;16.48;93.82;98140.09;5037637;27;126717;-73
2022/05/12 05:30:57;;;;;;;13.60;10.82;;;15.40;1.00;;;16.62;92.76;98139.38;5037520;27;125907;-73
2022/05/12 05:33:26;;;;;;;14.15;11.02;;;15.50;1.00;;;16.84;92.24;98145.72;5036861;27;130067;-74
2022/05/12 05:35:54;;;;;;;17.23;11.98;;;15.70;1.00;;;17.12;89.30;98148.94;5036909;27;129912;-71
2022/05/12 05:38:24;;;;;;;18.95;11.65;;;15.80;1.00;;;17.52;88.33;98152.56;5036769;27;126422;-75
2022/05/12 05:40:53;;;;;;;17.58;11.57;;;16.20;1.00;;;17.73;84.95;98151.75;5037310;27;126700;-71
2022/05/12 05:43:23;;;;;;;15.75;11.90;;;16.30;1.00;;;18.03;83.93;98161.56;5036840;27;130452;-72
2022/05/12 05:45:52;;;;;;;15.05;11.30;;;16.50;1.00;;;18.10;83.08;98161.56;5022091;27;129229;-75
2022/05/12 05:48:20;;;;;;;14.60;11.63;;;16.50;1.00;;;18.26;83.97;98164.69;5036963;27;126272;-74
2022/05/12 05:53:39;;;;;;;15.60;10.67;;;16.60;1.00;;;18.72;80.92;98179.47;5018459;27;130187;-72
2022/05/12 05:56:14;;;;;;;20.92;12.15;;;16.80;1.00;;;18.89;80.91;98191.59;5017191;27;129626;-76
2022/05/12 05:58:44;;;;;;;15.65;10.38;;;16.80;1.00;;;18.94;79.74;98185.69;5028663;27;127620;-76
2022/05/12 06:01:13;;;;;;;15.40;11.05;;;16.70;1.00;;;18.54;79.86;98204.22;5036982;27;126762;-75
2022/05/12 06:03:42;;;;;;;18.85;12.65;;;16.50;1.00;;;18.31;77.57;98208.22;5036600;27;130026;-74
2022/05/12 06:06:11;;;;;;;17.02;11.90;;;16.30;1.00;;;18.25;76.60;98212.53;5036662;27;130295;-77
2022/05/12 06:08:41;;;;;;;14.60;10.48;;;16.10;1.00;;;18.29;77.66;98218.00;5037119;27;125900;-74
2022/05/12 06:11:10;;;;;;;13.65;11.10;;;16.30;1.00;;;18.60;77.16;98221.88;5039985;27;126635;-74
2022/05/12 06:13:38;;;;;;;19.38;12.02;;;16.60;1.00;;;18.89;75.98;98216.34;5038672;27;130045;-76
2022/05/12 06:16:08;;;;;;;16.30;11.77;;;16.60;1.00;;;18.79;76.50;98208.88;5042978;27;129632;-76
2022/05/12 06:18:37;;;;;;;18.67;12.65;;;16.70;1.00;;;18.81;74.78;98225.75;5036880;27;126275;-74
2022/05/12 06:21:06;;;;;;;17.67;13.13;;;16.30;1.00;;;18.87;76.30;98221.47;5043486;27;126078;-75
2022/05/12 06:23:35;;;;;;;17.02;12.40;;;16.60;1.00;;;18.88;75.94;98222.22;5029448;27;131281;-77
2022/05/12 06:26:09;;;;;;;15.85;12.02;;;16.70;1.00;;;18.92;75.35;98215.53;5044894;27;129611;-77
2022/05/12 06:28:40;;;;;;;16.95;12.90;;;16.80;1.00;;;19.08;75.91;98211.56;5045156;27;127291;-76
2022/05/12 06:31:08;;;;;;;15.43;12.27;;;16.90;1.00;;;19.28;74.60;98209.88;5048279;27;126513;-79
2022/05/12 06:33:37;;;;;;;14.80;12.05;;;17.10;1.00;;;19.31;72.44;98203.56;5041707;27;130387;-75
2022/05/12 06:36:07;;;;;;;15.23;11.90;;;17.10;1.00;;;19.64;72.35;98198.63;5039698;27;130364;-79
2022/05/12 06:38:38;;;;;;;19.67;12.32;;;17.40;1.00;;;20.15;69.21;98203.75;5030346;27;125601;-75
2022/05/12 06:41:08;;;;;;;17.70;12.52;;;17.70;1.00;;;20.52;67.32;98193.97;5042421;27;125162;-78
2022/05/12 06:43:37;;;;;;;16.83;12.73;;;17.80;1.00;;;20.82;67.41;98196.78;5047634;27;129773;-79
2022/05/12 06:46:10;;;;;;;17.02;11.95;;;18.20;1.00;;;20.73;68.44;98188.25;5045136;27;130559;-78
2022/05/12 06:48:39;;;;;;;14.77;11.80;;;18.10;1.00;;;20.75;67.04;98172.06;5040941;27;126025;-74
2022/05/12 06:51:08;;;;;;;12.57;11.25;;;18.20;1.00;;;20.76;66.71;98170.88;5038629;27;125821;-75
2022/05/12 06:53:36;;;;;;;15.93;12.27;;;18.30;1.00;;;20.82;66.21;98162.94;5036198;27;129831;-75
2022/05/12 06:56:07;;;;;;;13.35;11.18;;;18.30;1.00;;;21.05;64.46;98159.50;5011278;27;128613;-77
2022/05/12 06:58:37;;;;;;;14.40;10.80;;;18.40;1.00;;;21.74;63.72;98153.78;5012077;27;124313;-73
2022/05/12 07:01:06;;;;;;;15.07;11.82;;;19.00;1.00;;;22.12;61.92;98139.69;5042570;27;126375;-76
2022/05/12 07:03:34;;;;;;;15.73;11.05;;;19.30;1.00;;;22.82;58.86;98128.91;5027110;27;130283;-77
2022/05/12 07:06:03;;;;;;;13.25;10.43;;;19.80;1.00;;;23.10;58.39;98142.13;5039129;27;129947;-76
2022/05/12 07:08:32;;;;;;;13.60;10.55;;;20.20;1.00;;;23.01;58.58;98152.22;5045415;27;126155;-75
2022/05/12 07:11:00;;;;;;;15.50;12.18;;;20.20;1.00;;;22.66;59.44;98160.03;5047180;27;125695;-76
2022/05/12 07:13:30;;;;;;;20.65;11.85;;;19.80;1.00;;;22.11;60.68;98182.34;5023016;27;131245;-77
2022/05/12 07:15:58;;;;;;;19.85;15.07;;;19.30;1.00;;;21.26;62.23;98199.78;5038975;27;129650;-78
2022/05/12 07:18:27;;;;;;;21.17;13.00;;;18.40;1.00;;;20.46;64.86;98188.91;5038952;27;126296;-76
2022/05/12 07:26:36;;;;;;;21.35;16.70;;;17.50;1.00;;;18.57;79.07;98236.41;5034888;27;129443;-73
2022/05/12 07:29:09;;;;;;;24.00;16.83;;;17.00;1.00;;;18.29;80.39;98207.03;5035489;27;125781;-74
2022/05/12 07:31:38;;;;;;;20.35;16.20;;;16.70;1.00;;;18.12;78.35;98154.50;5035475;27;125499;-71
2022/05/12 07:34:07;;;;;;;20.00;16.05;;;16.60;1.00;;;18.21;79.84;98066.22;5020307;27;130419;-72
2022/05/12 07:36:39;;;;;;;19.73;16.17;;;16.70;1.00;;;18.48;81.65;98082.22;5035569;27;130242;-74
2022/05/12 07:39:07;;;;;;;21.25;16.25;;;16.90;1.00;;;18.83;83.16;98151.94;5034904;27;125783;-72
2022/05/12 07:41:38;;;;;;;22.02;17.00;;;16.90;1.00;;;19.28;82.84;98165.88;5035413;27;125081;-72
2022/05/12 07:44:09;;;;;;;21.80;16.33;;;17.20;1.00;;;19.77;82.17;98165.16;5019484;27;128798;-73
2022/05/12 07:46:38;;;;;;;23.80;16.38;;;17.70;1.00;;;20.23;80.22;98144.69;5035093;27;129468;-71
2022/05/12 07:49:07;;;;;;;20.30;16.35;;;17.90;1.00;;;20.78;77.50;98143.66;5020320;27;125026;-72
2022/05/12 07:51:35;;;;;;;23.20;18.67;;;18.20;1.00;;;20.77;77.99;98138.56;5036581;27;126099;-72
2022/05/12 07:54:04;;;;;;;22.77;17.05;;;18.20;1.00;;;20.75;76.83;98103.16;5020034;27;129859;-72
2022/05/12 07:56:33;;;;;;;29.65;18.50;;;18.10;1.00;;;20.99;77.49;98094.97;5019781;27;128886;-72
2022/05/12 07:59:02;;;;;;;19.73;17.63;;;18.40;1.00;;;21.47;76.99;98093.84;5035153;27;125673;-72
2022/05/12 08:01:32;;;;;;;19.27;16.65;;;18.70;1.00;;;21.62;74.75;98088.13;5035526;27;125885;-72
2022/05/12 08:04:00;;;;;;;21.20;17.33;;;18.70;1.00;;;21.56;75.03;98076.00;5034530;27;129789;-71
2022/05/12 08:06:29;;;;;;;19.25;15.90;;;18.70;1.00;;;22.00;72.96;98083.09;5036720;27;129208;-74
2022/05/12 08:08:57;;;;;;;25.45;17.25;;;19.00;1.00;;;22.40;72.70;98055.50;5034696;27;126467;-73
2022/05/12 08:11:25;;;;;;;25.13;16.55;;;19.20;1.00;;;23.15;70.37;98057.84;5034739;27;128557;-73
2022/05/12 08:13:54;;;;;;;22.58;16.38;;;19.90;1.00;;;23.40;69.40;98048.16;5034668;27;130184;-71
2022/05/12 08:16:23;;;;;;;16.65;13.73;;;19.90;1.00;;;23.18;66.82;98023.00;5034356;27;129634;-76
2022/05/12 08:18:54;;;;;;;20.88;15.25;;;19.60;1.00;;;22.73;68.44;98016.09;5034906;27;125705;-75
2022/05/12 08:21:24;;;;;;;18.75;15.80;;;19.40;1.00;;;22.37;69.45;98000.31;5034660;27;126058;-74
2022/05/12 08:23:53;;;;;;;19.17;15.23;;;19.10;1.00;;;22.18;69.25;98013.69;5034774;27;130174;-73
2022/05/12 08:26:23;;;;;;;20.35;16.08;;;19.00;1.00;;;22.34;69.12;97998.41;5034698;27;130289;-72
2022/05/12 08:28:52;;;;;;;17.88;15.50;;;19.30;1.00;;;22.64;67.24;97996.56;4993380;28;124678;-73
2022/05/12 08:31:27;;;;;;;19.58;15.27;;;19.40;1.00;;;22.66;67.90;97983.09;5014139;27;125289;-73
2022/05/12 08:33:57;;;;;;;16.90;15.13;;;19.50;1.00;;;22.84;67.10;97983.44;5012927;28;130404;-76
2022/05/12 08:36:27;;;;;;;20.63;16.30;;;19.60;1.00;;;22.65;68.26;97976.78;5011680;28;129578;-73
2022/05/12 08:38:56;;;;;;;21.48;16.50;;;19.60;1.00;;;22.53;68.78;97975.50;4979432;28;126104;-73
2022/05/12 08:41:40;;;;;;;17.80;15.82;;;19.50;1.00;;;22.38;68.01;97963.19;4993927;28;125337;-73
2022/05/12 08:44:13;;;;;;;19.77;16.05;;;19.30;1.00;;;22.57;68.22;97951.28;4994013;28;130256;-73
2022/05/12 08:46:47;;;;;;;19.08;16.38;;;19.60;1.00;;;22.87;67.29;97943.88;4993659;28;129782;-74
2022/05/12 08:49:27;;;;;;;18.83;16.33;;;19.90;1.00;;;22.83;66.40;97932.13;4993929;28;125701;-74
2022/05/12 08:52:16;;;;;;;18.92;17.02;;;19.80;1.00;;;22.79;67.96;97931.44;5013214;28;124660;-75
2022/05/12 08:54:54;;;;;;;18.08;16.17;;;20.00;1.00;;;23.22;65.30;97924.88;4999476;28;129917;-73
2022/05/12 08:57:34;;;;;;;19.52;16.08;;;20.50;1.00;;;23.30;65.67;97920.69;5017333;28;129578;-75
2022/05/12 09:00:08;;;;;;;15.55;13.90;;;20.50;1.00;;;23.32;63.26;97911.94;5017686;28;126717;-74
2022/05/12 09:02:49;;;;;;;15.15;13.55;;;20.60;1.00;;;23.87;62.80;97912.03;4999509;28;126311;-77
2022/05/12 09:05:29;;;;;;;17.27;14.93;;;21.00;1.00;;;24.26;61.01;97896.25;5021280;28;131890;-78
2022/05/12 09:08:11;;;;;;;16.00;14.35;;;21.30;1.00;;;24.59;60.49;97887.75;5018035;28;129140;-75
2022/05/12 09:10:53;;;;;;;15.95;12.38;;;21.40;1.00;;;24.86;57.42;97873.38;5018060;28;125821;-80
2022/05/12 09:13:28;;;;;;;21.92;12.50;;;21.40;1.00;;;24.89;57.36;97877.25;5002445;28;124762;-78
2022/05/12 09:16:09;;;;;;;15.53;11.20;;;21.70;1.00;;;24.89;55.96;97857.84;5017371;28;129543;-77
2022/05/12 09:18:39;;;;;;;11.77;9.98;;;21.40;1.00;;;25.28;55.52;97859.25;5017952;28;130195;-75
2022/05/12 09:21:13;;;;;;;12.23;10.93;;;21.70;1.00;;;26.07;55.25;97850.06;5017606;28;125617;-74
2022/05/12 09:23:42;;;;;;;13.35;11.95;;;22.60;1.00;;;25.77;53.66;97846.00;5003533;28;124216;-76
2022/05/12 09:26:42;;;;;;;14.27;11.57;;;22.20;1.00;;;25.58;54.67;97834.00;4999307;28;129848;-78
2022/05/12 09:29:22;;;;;;;12.82;10.32;;;22.20;1.00;;;25.67;54.52;97844.41;5003192;28;128850;-77
2022/05/12 09:31:55;;;;;;;13.18;10.80;;;22.30;1.00;;;26.05;53.61;97808.03;5018511;28;125694;-75
2022/05/12 09:34:32;;;;;;;11.75;9.80;;;22.50;1.00;;;26.13;50.93;97798.19;5018806;28;125544;-71
2022/05/12 09:37:19;;;;;;;11.07;9.98;;;22.20;1.00;;;25.72;52.22;97779.94;5018762;28;130010;-78
2022/05/12 09:39:51;;;;;;;11.68;9.88;;;22.20;1.00;;;24.82;55.53;97783.94;5018294;28;129996;-80
2022/05/12 09:42:40;;;;;;;13.52;9.70;;;22.00;1.00;;;24.00;58.24;97788.19;5017988;28;126586;-79
2022/05/12 09:45:31;;;;;;;14.20;10.68;;;21.40;1.00;;;23.40;59.87;97790.75;5018108;28;125681;-78
2022/05/12 09:48:18;;;;;;;11.93;10.68;;;21.00;1.00;;;23.14;61.40;97812.84;5018081;28;130052;-76
2022/05/12 09:50:47;;;;;;;13.15;10.98;;;20.80;1.00;;;22.88;61.76;97809.94;5017407;28;129410;-76
2022/05/12 09:53:29;;;;;;;13.40;11.05;;;20.70;1.00;;;22.83;60.80;97854.72;5016970;28;127633;-79
2022/05/12 09:56:05;;;;;;;16.85;11.75;;;20.30;1.00;;;22.53;61.75;97887.03;5017290;28;126700;-80
2022/05/12 09:58:38;;;;;;;13.30;10.57;;;20.20;1.00;;;21.69;65.08;97867.13;5017117;28;129709;-75
2022/05/12 10:01:23;;;;;;;12.02;9.38;;;20.20;1.00;;;21.44;67.28;97853.81;5017130;28;130396;-79
2022/05/12 10:09:33;;;;;;;10.82;8.48;;;19.90;1.00;;;21.53;65.64;97835.53;5019677;28;131768;-73
2022/05/12 10:12:12;;;;;;;16.08;9.75;;;19.80;1.00;;;21.33;65.64;97838.28;5017136;28;130272;-75
2022/05/12 10:14:47;;;;;;;11.95;9.73;;;19.70;1.00;;;21.01;67.00;97875.50;5016843;28;125862;-78
2022/05/12 10:17:27;;;;;;;13.43;10.00;;;19.60;1.00;;;20.87;68.67;97877.75;5016803;28;125530;-80
2022/05/12 10:19:59;;;;;;;11.20;10.02;;;19.40;1.00;;;20.72;70.72;97855.13;4984704;28;128765;-76
2022/05/12 10:22:35;;;;;;;19.23;13.82;;;19.40;1.00;;;20.66;71.91;97824.50;5016219;28;130391;-77
2022/05/12 10:25:23;;;;;;;13.38;10.60;;;19.30;1.00;;;20.17;75.48;97835.13;5016481;28;125792;-76
2022/05/12 10:27:59;;;;;;;17.75;14.38;;;19.10;1.00;;;20.11;77.71;97821.81;5016290;28;125923;-75
2022/05/12 10:30:42;;;;;;;13.48;11.18;;;18.80;1.00;;;19.82;81.14;97762.88;5015929;28;130731;-75
2022/05/12 10:33:32;;;;;;;17.05;13.35;;;18.60;1.00;;;19.71;84.46;97834.53;5016273;28;129483;-72
2022/05/12 10:36:16;;;;;;;25.65;19.60;;;18.30;1.00;;;19.55;84.30;97824.13;5016251;28;125661;-71
2022/05/12 10:38:56;;;;;;;33.70;20.40;;;18.10;1.00;;;19.60;86.37;97834.66;5016484;28;125474;-71
2022/05/12 10:41:35;;;;;;;32.55;19.45;;;18.00;1.00;;;20.34;85.37;97797.50;5015932;28;130229;-72
2022/05/12 10:44:30;;;;;;;19.00;13.60;;;18.40;1.00;;;21.59;79.17;97749.47;5016043;28;129954;-72